sensor_id;sensor_type;location;lat;lon;timestamp;pressure;altitude;pressure_sealevel;temperature
19644;BMP180;9970;-36.854;174.870;2024-03-06T00:02:03;101579.00;;;20.40
19644;BMP180;9970;-36.854;174.870;2024-03-06T00:04:36;101583.00;;;20.40
19644;BMP180;9970;-36.854;174.870;2024-03-06T00:07:10;101580.00;;;20.40
19644;BMP180;9970;-36.854;174.870;2024-03-06T00:09:43;101572.00;;;20.40
19644;BMP180;9970;-36.854;174.870;2024-03-06T00:12:16;101579.00;;;20.40
19644;BMP180;9970;-36.854;174.870;2024-03-06T00:14:49;101571.00;;;20.40
19644;BMP180;9970;-36.854;174.870;2024-03-06T00:17:22;101577.00;;;20.50
19644;BMP180;9970;-36.854;174.870;2024-03-06T00:19:55;101573.00;;;20.50
19644;BMP180;9970;-36.854;174.870;2024-03-06T00:22:28;101580.00;;;20.50
19644;BMP180;9970;-36.854;174.870;2024-03-06T00:25:01;101585.00;;;20.60
19644;BMP180;9970;-36.854;174.870;2024-03-06T00:27:34;101594.00;;;20.60
19644;BMP180;9970;-36.854;174.870;2024-03-06T00:30:07;101591.00;;;20.70
19644;BMP180;9970;-36.854;174.870;2024-03-06T00:32:41;101587.00;;;20.70
19644;BMP180;9970;-36.854;174.870;2024-03-06T00:35:14;101601.00;;;20.70
19644;BMP180;9970;-36.854;174.870;2024-03-06T00:37:46;101603.00;;;20.70
19644;BMP180;9970;-36.854;174.870;2024-03-06T00:40:20;101613.00;;;20.70
19644;BMP180;9970;-36.854;174.870;2024-03-06T00:42:58;101618.00;;;20.70
19644;BMP180;9970;-36.854;174.870;2024-03-06T00:45:31;101616.00;;;20.60
19644;BMP180;9970;-36.854;174.870;2024-03-06T00:48:04;101612.00;;;20.60
19644;BMP180;9970;-36.854;174.870;2024-03-06T00:50:37;101606.00;;;20.70
19644;BMP180;9970;-36.854;174.870;2024-03-06T00:53:10;101617.00;;;20.80
19644;BMP180;9970;-36.854;174.870;2024-03-06T00:55:43;101622.00;;;20.90
19644;BMP180;9970;-36.854;174.870;2024-03-06T00:58:16;101629.00;;;20.90
19644;BMP180;9970;-36.854;174.870;2024-03-06T01:00:49;101632.00;;;20.80
19644;BMP180;9970;-36.854;174.870;2024-03-06T01:03:22;101619.00;;;20.80
19644;BMP180;9970;-36.854;174.870;2024-03-06T01:05:55;101631.00;;;20.90
19644;BMP180;9970;-36.854;174.870;2024-03-06T01:08:28;101633.00;;;20.90
19644;BMP180;9970;-36.854;174.870;2024-03-06T01:11:06;101629.00;;;20.90
19644;BMP180;9970;-36.854;174.870;2024-03-06T01:13:39;101622.00;;;20.90
19644;BMP180;9970;-36.854;174.870;2024-03-06T01:16:12;101624.00;;;20.80
19644;BMP180;9970;-36.854;174.870;2024-03-06T01:18:45;101623.00;;;20.80
19644;BMP180;9970;-36.854;174.870;2024-03-06T01:21:18;101637.00;;;20.80
19644;BMP180;9970;-36.854;174.870;2024-03-06T01:23:51;101634.00;;;20.80
19644;BMP180;9970;-36.854;174.870;2024-03-06T01:26:24;101631.00;;;20.80
19644;BMP180;9970;-36.854;174.870;2024-03-06T01:28:57;101626.00;;;20.80
19644;BMP180;9970;-36.854;174.870;2024-03-06T01:31:31;101643.00;;;20.80
19644;BMP180;9970;-36.854;174.870;2024-03-06T01:34:04;101641.00;;;20.80
19644;BMP180;9970;-36.854;174.870;2024-03-06T01:36:37;101644.00;;;20.80
19644;BMP180;9970;-36.854;174.870;2024-03-06T01:39:10;101635.00;;;20.80
19644;BMP180;9970;-36.854;174.870;2024-03-06T01:41:49;101641.00;;;20.80
19644;BMP180;9970;-36.854;174.870;2024-03-06T01:44:22;101640.00;;;20.90
19644;BMP180;9970;-36.854;174.870;2024-03-06T01:46:55;101642.00;;;20.90
19644;BMP180;9970;-36.854;174.870;2024-03-06T01:49:28;101639.00;;;20.90
19644;BMP180;9970;-36.854;174.870;2024-03-06T01:52:02;101645.00;;;20.80
19644;BMP180;9970;-36.854;174.870;2024-03-06T01:54:36;101642.00;;;20.80
19644;BMP180;9970;-36.854;174.870;2024-03-06T01:57:09;101647.00;;;20.70
19644;BMP180;9970;-36.854;174.870;2024-03-06T01:59:48;101641.00;;;20.70
19644;BMP180;9970;-36.854;174.870;2024-03-06T02:02:22;101645.00;;;20.70
19644;BMP180;9970;-36.854;174.870;2024-03-06T02:04:56;101641.00;;;20.70
19644;BMP180;9970;-36.854;174.870;2024-03-06T02:07:31;101650.00;;;20.70
19644;BMP180;9970;-36.854;174.870;2024-03-06T02:10:05;101645.00;;;20.70
19644;BMP180;9970;-36.854;174.870;2024-03-06T02:12:42;101643.00;;;20.70
19644;BMP180;9970;-36.854;174.870;2024-03-06T02:15:34;101643.00;;;20.70
19644;BMP180;9970;-36.854;174.870;2024-03-06T02:18:08;101630.00;;;20.60
19644;BMP180;9970;-36.854;174.870;2024-03-06T02:20:43;101642.00;;;20.60
19644;BMP180;9970;-36.854;174.870;2024-03-06T02:23:17;101643.00;;;20.70
19644;BMP180;9970;-36.854;174.870;2024-03-06T02:25:51;101631.00;;;20.70
19644;BMP180;9970;-36.854;174.870;2024-03-06T02:28:24;101640.00;;;20.70
19644;BMP180;9970;-36.854;174.870;2024-03-06T02:30:57;101633.00;;;20.70
19644;BMP180;9970;-36.854;174.870;2024-03-06T02:33:30;101630.00;;;20.60
19644;BMP180;9970;-36.854;174.870;2024-03-06T02:36:04;101636.00;;;20.70
19644;BMP180;9970;-36.854;174.870;2024-03-06T02:38:37;101624.00;;;20.70
19644;BMP180;9970;-36.854;174.870;2024-03-06T02:41:10;101632.00;;;20.70
19644;BMP180;9970;-36.854;174.870;2024-03-06T02:43:45;101633.00;;;20.70
19644;BMP180;9970;-36.854;174.870;2024-03-06T02:46:18;101630.00;;;20.70
19644;BMP180;9970;-36.854;174.870;2024-03-06T02:48:51;101625.00;;;20.80
19644;BMP180;9970;-36.854;174.870;2024-03-06T02:51:24;101626.00;;;20.80
19644;BMP180;9970;-36.854;174.870;2024-03-06T02:53:57;101623.00;;;20.80
19644;BMP180;9970;-36.854;174.870;2024-03-06T02:56:30;101630.00;;;20.70
19644;BMP180;9970;-36.854;174.870;2024-03-06T02:59:03;101635.00;;;20.70
19644;BMP180;9970;-36.854;174.870;2024-03-06T03:01:35;101632.00;;;20.70
19644;BMP180;9970;-36.854;174.870;2024-03-06T03:04:11;101628.00;;;20.60
19644;BMP180;9970;-36.854;174.870;2024-03-06T03:06:44;101625.00;;;20.60
19644;BMP180;9970;-36.854;174.870;2024-03-06T03:09:17;101616.00;;;20.60
19644;BMP180;9970;-36.854;174.870;2024-03-06T03:11:49;101623.00;;;20.60
19644;BMP180;9970;-36.854;174.870;2024-03-06T03:14:23;101633.00;;;20.60
19644;BMP180;9970;-36.854;174.870;2024-03-06T03:16:56;101625.00;;;20.60
19644;BMP180;9970;-36.854;174.870;2024-03-06T03:19:29;101630.00;;;20.60
19644;BMP180;9970;-36.854;174.870;2024-03-06T03:22:02;101634.00;;;20.60
19644;BMP180;9970;-36.854;174.870;2024-03-06T03:24:35;101645.00;;;20.60
19644;BMP180;9970;-36.854;174.870;2024-03-06T03:27:12;101635.00;;;20.60
19644;BMP180;9970;-36.854;174.870;2024-03-06T03:29:45;101639.00;;;20.50
19644;BMP180;9970;-36.854;174.870;2024-03-06T03:32:18;101640.00;;;20.50
19644;BMP180;9970;-36.854;174.870;2024-03-06T03:34:51;101645.00;;;20.40
19644;BMP180;9970;-36.854;174.870;2024-03-06T03:37:24;101649.00;;;20.40
19644;BMP180;9970;-36.854;174.870;2024-03-06T03:39:58;101650.00;;;20.40
19644;BMP180;9970;-36.854;174.870;2024-03-06T03:42:30;101649.00;;;20.40
19644;BMP180;9970;-36.854;174.870;2024-03-06T03:45:04;101647.00;;;20.40
19644;BMP180;9970;-36.854;174.870;2024-03-06T03:47:37;101648.00;;;20.50
19644;BMP180;9970;-36.854;174.870;2024-03-06T03:50:11;101647.00;;;20.50
19644;BMP180;9970;-36.854;174.870;2024-03-06T03:52:44;101661.00;;;20.50
19644;BMP180;9970;-36.854;174.870;2024-03-06T03:55:17;101663.00;;;20.50
19644;BMP180;9970;-36.854;174.870;2024-03-06T03:57:50;101660.00;;;20.50
19644;BMP180;9970;-36.854;174.870;2024-03-06T04:00:23;101666.00;;;20.40
19644;BMP180;9970;-36.854;174.870;2024-03-06T04:02:56;101664.00;;;20.40
19644;BMP180;9970;-36.854;174.870;2024-03-06T04:05:28;101664.00;;;20.40
19644;BMP180;9970;-36.854;174.870;2024-03-06T04:08:02;101662.00;;;20.40
19644;BMP180;9970;-36.854;174.870;2024-03-06T04:10:37;101666.00;;;20.40
19644;BMP180;9970;-36.854;174.870;2024-03-06T04:13:10;101664.00;;;20.30
19644;BMP180;9970;-36.854;174.870;2024-03-06T04:15:43;101677.00;;;20.30
19644;BMP180;9970;-36.854;174.870;2024-03-06T04:18:16;101665.00;;;20.30
19644;BMP180;9970;-36.854;174.870;2024-03-06T04:20:49;101666.00;;;20.30
19644;BMP180;9970;-36.854;174.870;2024-03-06T04:23:22;101668.00;;;20.20
19644;BMP180;9970;-36.854;174.870;2024-03-06T04:25:55;101665.00;;;20.20
19644;BMP180;9970;-36.854;174.870;2024-03-06T04:28:28;101670.00;;;20.20
19644;BMP180;9970;-36.854;174.870;2024-03-06T04:31:01;101674.00;;;20.20
19644;BMP180;9970;-36.854;174.870;2024-03-06T04:33:35;101663.00;;;20.20
19644;BMP180;9970;-36.854;174.870;2024-03-06T04:36:08;101674.00;;;20.20
19644;BMP180;9970;-36.854;174.870;2024-03-06T04:38:41;101671.00;;;20.10
19644;BMP180;9970;-36.854;174.870;2024-03-06T04:41:14;101672.00;;;20.10
19644;BMP180;9970;-36.854;174.870;2024-03-06T04:43:52;101672.00;;;20.10
19644;BMP180;9970;-36.854;174.870;2024-03-06T04:46:24;101669.00;;;20.10
19644;BMP180;9970;-36.854;174.870;2024-03-06T04:48:58;101676.00;;;20.00
19644;BMP180;9970;-36.854;174.870;2024-03-06T04:51:30;101675.00;;;20.00
19644;BMP180;9970;-36.854;174.870;2024-03-06T04:54:03;101678.00;;;20.00
19644;BMP180;9970;-36.854;174.870;2024-03-06T04:56:36;101682.00;;;20.00
19644;BMP180;9970;-36.854;174.870;2024-03-06T04:59:09;101672.00;;;20.00
19644;BMP180;9970;-36.854;174.870;2024-03-06T05:01:42;101669.00;;;20.00
19644;BMP180;9970;-36.854;174.870;2024-03-06T05:04:16;101681.00;;;20.00
19644;BMP180;9970;-36.854;174.870;2024-03-06T05:07:05;101672.00;;;19.90
19644;BMP180;9970;-36.854;174.870;2024-03-06T05:09:53;101683.00;;;19.90
19644;BMP180;9970;-36.854;174.870;2024-03-06T05:12:45;101677.00;;;19.90
19644;BMP180;9970;-36.854;174.870;2024-03-06T05:15:34;101686.00;;;19.80
19644;BMP180;9970;-36.854;174.870;2024-03-06T05:18:23;101691.00;;;19.80
19644;BMP180;9970;-36.854;174.870;2024-03-06T05:21:12;101686.00;;;19.80
19644;BMP180;9970;-36.854;174.870;2024-03-06T05:24:01;101698.00;;;19.80
19644;BMP180;9970;-36.854;174.870;2024-03-06T05:26:49;101708.00;;;19.80
19644;BMP180;9970;-36.854;174.870;2024-03-06T05:29:37;101705.00;;;19.80
19644;BMP180;9970;-36.854;174.870;2024-03-06T05:32:26;101710.00;;;19.70
19644;BMP180;9970;-36.854;174.870;2024-03-06T05:35:15;101708.00;;;19.70
19644;BMP180;9970;-36.854;174.870;2024-03-06T05:38:04;101713.00;;;19.70
19644;BMP180;9970;-36.854;174.870;2024-03-06T05:40:53;101713.00;;;19.70
19644;BMP180;9970;-36.854;174.870;2024-03-06T05:43:42;101725.00;;;19.60
19644;BMP180;9970;-36.854;174.870;2024-03-06T05:46:31;101728.00;;;19.60
19644;BMP180;9970;-36.854;174.870;2024-03-06T05:49:20;101727.00;;;19.60
19644;BMP180;9970;-36.854;174.870;2024-03-06T05:52:08;101733.00;;;19.60
19644;BMP180;9970;-36.854;174.870;2024-03-06T05:54:57;101742.00;;;19.60
19644;BMP180;9970;-36.854;174.870;2024-03-06T05:57:46;101734.00;;;19.50
19644;BMP180;9970;-36.854;174.870;2024-03-06T06:00:39;101739.00;;;19.50
19644;BMP180;9970;-36.854;174.870;2024-03-06T06:03:12;101744.00;;;19.50
19644;BMP180;9970;-36.854;174.870;2024-03-06T06:05:45;101741.00;;;19.50
19644;BMP180;9970;-36.854;174.870;2024-03-06T06:08:18;101748.00;;;19.50
19644;BMP180;9970;-36.854;174.870;2024-03-06T06:10:51;101746.00;;;19.50
19644;BMP180;9970;-36.854;174.870;2024-03-06T06:13:26;101744.00;;;19.50
19644;BMP180;9970;-36.854;174.870;2024-03-06T06:16:01;101747.00;;;19.50
19644;BMP180;9970;-36.854;174.870;2024-03-06T06:18:40;101746.00;;;19.50
19644;BMP180;9970;-36.854;174.870;2024-03-06T06:21:13;101755.00;;;19.50
19644;BMP180;9970;-36.854;174.870;2024-03-06T06:23:46;101755.00;;;19.50
19644;BMP180;9970;-36.854;174.870;2024-03-06T06:26:19;101761.00;;;19.40
19644;BMP180;9970;-36.854;174.870;2024-03-06T06:28:52;101753.00;;;19.40
19644;BMP180;9970;-36.854;174.870;2024-03-06T06:31:25;101761.00;;;19.40
19644;BMP180;9970;-36.854;174.870;2024-03-06T06:33:58;101763.00;;;19.40
19644;BMP180;9970;-36.854;174.870;2024-03-06T06:36:31;101779.00;;;19.40
19644;BMP180;9970;-36.854;174.870;2024-03-06T06:39:03;101779.00;;;19.40
19644;BMP180;9970;-36.854;174.870;2024-03-06T06:41:37;101781.00;;;19.40
19644;BMP180;9970;-36.854;174.870;2024-03-06T06:44:10;101785.00;;;19.30
19644;BMP180;9970;-36.854;174.870;2024-03-06T06:46:44;101786.00;;;19.30
19644;BMP180;9970;-36.854;174.870;2024-03-06T06:49:17;101790.00;;;19.30
19644;BMP180;9970;-36.854;174.870;2024-03-06T06:51:51;101792.00;;;19.30
19644;BMP180;9970;-36.854;174.870;2024-03-06T06:54:24;101802.00;;;19.30
19644;BMP180;9970;-36.854;174.870;2024-03-06T06:56:57;101798.00;;;19.20
19644;BMP180;9970;-36.854;174.870;2024-03-06T06:59:30;101794.00;;;19.20
19644;BMP180;9970;-36.854;174.870;2024-03-06T07:02:04;101802.00;;;19.20
19644;BMP180;9970;-36.854;174.870;2024-03-06T07:04:37;101806.00;;;19.20
19644;BMP180;9970;-36.854;174.870;2024-03-06T07:07:10;101813.00;;;19.20
19644;BMP180;9970;-36.854;174.870;2024-03-06T07:09:43;101824.00;;;19.20
19644;BMP180;9970;-36.854;174.870;2024-03-06T07:12:16;101834.00;;;19.20
19644;BMP180;9970;-36.854;174.870;2024-03-06T07:14:49;101836.00;;;19.10
19644;BMP180;9970;-36.854;174.870;2024-03-06T07:17:22;101840.00;;;19.10
19644;BMP180;9970;-36.854;174.870;2024-03-06T07:19:55;101849.00;;;19.10
19644;BMP180;9970;-36.854;174.870;2024-03-06T07:22:28;101851.00;;;19.10
19644;BMP180;9970;-36.854;174.870;2024-03-06T07:25:01;101851.00;;;19.10
19644;BMP180;9970;-36.854;174.870;2024-03-06T07:27:35;101851.00;;;19.10
19644;BMP180;9970;-36.854;174.870;2024-03-06T07:30:08;101861.00;;;19.10
19644;BMP180;9970;-36.854;174.870;2024-03-06T07:32:43;101865.00;;;19.00
19644;BMP180;9970;-36.854;174.870;2024-03-06T07:35:20;101859.00;;;19.00
19644;BMP180;9970;-36.854;174.870;2024-03-06T07:37:53;101851.00;;;19.00
19644;BMP180;9970;-36.854;174.870;2024-03-06T07:40:27;101855.00;;;19.00
19644;BMP180;9970;-36.854;174.870;2024-03-06T07:43:02;101865.00;;;19.00
19644;BMP180;9970;-36.854;174.870;2024-03-06T07:45:36;101873.00;;;19.00
19644;BMP180;9970;-36.854;174.870;2024-03-06T07:48:09;101876.00;;;18.90
19644;BMP180;9970;-36.854;174.870;2024-03-06T07:50:42;101873.00;;;18.90
19644;BMP180;9970;-36.854;174.870;2024-03-06T07:53:15;101880.00;;;18.90
19644;BMP180;9970;-36.854;174.870;2024-03-06T07:55:48;101891.00;;;18.90
19644;BMP180;9970;-36.854;174.870;2024-03-06T07:58:21;101896.00;;;18.80
19644;BMP180;9970;-36.854;174.870;2024-03-06T08:00:54;101903.00;;;18.80
19644;BMP180;9970;-36.854;174.870;2024-03-06T08:03:27;101915.00;;;18.80
19644;BMP180;9970;-36.854;174.870;2024-03-06T08:06:00;101913.00;;;18.70
19644;BMP180;9970;-36.854;174.870;2024-03-06T08:08:33;101924.00;;;18.70
19644;BMP180;9970;-36.854;174.870;2024-03-06T08:11:06;101926.00;;;18.70
19644;BMP180;9970;-36.854;174.870;2024-03-06T08:13:41;101937.00;;;18.70
19644;BMP180;9970;-36.854;174.870;2024-03-06T08:16:14;101932.00;;;18.70
19644;BMP180;9970;-36.854;174.870;2024-03-06T08:18:47;101943.00;;;18.60
19644;BMP180;9970;-36.854;174.870;2024-03-06T08:21:19;101940.00;;;18.60
19644;BMP180;9970;-36.854;174.870;2024-03-06T08:23:52;101942.00;;;18.60
19644;BMP180;9970;-36.854;174.870;2024-03-06T08:26:26;101952.00;;;18.60
19644;BMP180;9970;-36.854;174.870;2024-03-06T08:28:59;101959.00;;;18.50
19644;BMP180;9970;-36.854;174.870;2024-03-06T08:31:31;101960.00;;;18.50
19644;BMP180;9970;-36.854;174.870;2024-03-06T08:34:04;101967.00;;;18.50
19644;BMP180;9970;-36.854;174.870;2024-03-06T08:36:37;101962.00;;;18.50
19644;BMP180;9970;-36.854;174.870;2024-03-06T08:39:10;101970.00;;;18.50
19644;BMP180;9970;-36.854;174.870;2024-03-06T08:41:44;101972.00;;;18.40
19644;BMP180;9970;-36.854;174.870;2024-03-06T08:44:17;101979.00;;;18.40
19644;BMP180;9970;-36.854;174.870;2024-03-06T08:46:51;101966.00;;;18.40
19644;BMP180;9970;-36.854;174.870;2024-03-06T08:49:25;101967.00;;;18.40
19644;BMP180;9970;-36.854;174.870;2024-03-06T08:51:58;101967.00;;;18.30
19644;BMP180;9970;-36.854;174.870;2024-03-06T08:54:30;101979.00;;;18.30
19644;BMP180;9970;-36.854;174.870;2024-03-06T08:57:04;101979.00;;;18.30
19644;BMP180;9970;-36.854;174.870;2024-03-06T08:59:37;101977.00;;;18.30
19644;BMP180;9970;-36.854;174.870;2024-03-06T09:02:17;101979.00;;;18.20
19644;BMP180;9970;-36.854;174.870;2024-03-06T09:04:51;101986.00;;;18.20
19644;BMP180;9970;-36.854;174.870;2024-03-06T09:07:24;102001.00;;;18.20
19644;BMP180;9970;-36.854;174.870;2024-03-06T09:09:57;101997.00;;;18.10
19644;BMP180;9970;-36.854;174.870;2024-03-06T09:12:30;102000.00;;;18.10
19644;BMP180;9970;-36.854;174.870;2024-03-06T09:15:03;102003.00;;;18.10
19644;BMP180;9970;-36.854;174.870;2024-03-06T09:17:37;102010.00;;;18.10
19644;BMP180;9970;-36.854;174.870;2024-03-06T09:20:11;102004.00;;;18.10
19644;BMP180;9970;-36.854;174.870;2024-03-06T09:22:44;102009.00;;;18.10
19644;BMP180;9970;-36.854;174.870;2024-03-06T09:25:18;102003.00;;;18.10
19644;BMP180;9970;-36.854;174.870;2024-03-06T09:27:52;102003.00;;;18.10
19644;BMP180;9970;-36.854;174.870;2024-03-06T09:30:25;101999.00;;;18.10
19644;BMP180;9970;-36.854;174.870;2024-03-06T09:32:59;102005.00;;;18.10
19644;BMP180;9970;-36.854;174.870;2024-03-06T09:35:31;102007.00;;;18.10
19644;BMP180;9970;-36.854;174.870;2024-03-06T09:38:05;102001.00;;;18.00
19644;BMP180;9970;-36.854;174.870;2024-03-06T09:40:38;102001.00;;;18.00
19644;BMP180;9970;-36.854;174.870;2024-03-06T09:43:12;102000.00;;;18.00
19644;BMP180;9970;-36.854;174.870;2024-03-06T09:45:50;101998.00;;;18.00
19644;BMP180;9970;-36.854;174.870;2024-03-06T09:48:23;101998.00;;;17.90
19644;BMP180;9970;-36.854;174.870;2024-03-06T09:50:57;101991.00;;;17.90
19644;BMP180;9970;-36.854;174.870;2024-03-06T09:53:30;102000.00;;;17.90
19644;BMP180;9970;-36.854;174.870;2024-03-06T09:56:05;101998.00;;;17.90
19644;BMP180;9970;-36.854;174.870;2024-03-06T09:58:38;101999.00;;;17.80
19644;BMP180;9970;-36.854;174.870;2024-03-06T10:01:14;101996.00;;;17.80
19644;BMP180;9970;-36.854;174.870;2024-03-06T10:03:47;102002.00;;;17.80
19644;BMP180;9970;-36.854;174.870;2024-03-06T10:06:21;102001.00;;;17.80
19644;BMP180;9970;-36.854;174.870;2024-03-06T10:09:03;101998.00;;;17.80
19644;BMP180;9970;-36.854;174.870;2024-03-06T10:11:38;101989.00;;;17.80
19644;BMP180;9970;-36.854;174.870;2024-03-06T10:14:09;101990.00;;;17.80
19644;BMP180;9970;-36.854;174.870;2024-03-06T10:16:58;101990.00;;;17.80
19644;BMP180;9970;-36.854;174.870;2024-03-06T10:19:31;101999.00;;;17.70
19644;BMP180;9970;-36.854;174.870;2024-03-06T10:22:06;101997.00;;;17.70
19644;BMP180;9970;-36.854;174.870;2024-03-06T10:24:40;101994.00;;;17.70
19644;BMP180;9970;-36.854;174.870;2024-03-06T10:27:16;101995.00;;;17.70
19644;BMP180;9970;-36.854;174.870;2024-03-06T10:30:03;101993.00;;;17.70
19644;BMP180;9970;-36.854;174.870;2024-03-06T10:32:41;101993.00;;;17.60
19644;BMP180;9970;-36.854;174.870;2024-03-06T10:35:21;101988.00;;;17.60
19644;BMP180;9970;-36.854;174.870;2024-03-06T10:37:55;101989.00;;;17.60
19644;BMP180;9970;-36.854;174.870;2024-03-06T10:40:28;101988.00;;;17.50
19644;BMP180;9970;-36.854;174.870;2024-03-06T10:43:04;101987.00;;;17.50
19644;BMP180;9970;-36.854;174.870;2024-03-06T10:45:47;101988.00;;;17.50
19644;BMP180;9970;-36.854;174.870;2024-03-06T10:48:21;101982.00;;;17.40
19644;BMP180;9970;-36.854;174.870;2024-03-06T10:50:54;101987.00;;;17.40
19644;BMP180;9970;-36.854;174.870;2024-03-06T10:53:29;101985.00;;;17.40
19644;BMP180;9970;-36.854;174.870;2024-03-06T10:56:03;101988.00;;;17.40
19644;BMP180;9970;-36.854;174.870;2024-03-06T10:58:38;101990.00;;;17.40
19644;BMP180;9970;-36.854;174.870;2024-03-06T11:01:11;101994.00;;;17.40
19644;BMP180;9970;-36.854;174.870;2024-03-06T11:03:45;101984.00;;;17.40
19644;BMP180;9970;-36.854;174.870;2024-03-06T11:06:19;101997.00;;;17.30
19644;BMP180;9970;-36.854;174.870;2024-03-06T11:08:52;101992.00;;;17.30
19644;BMP180;9970;-36.854;174.870;2024-03-06T11:11:25;101993.00;;;17.30
19644;BMP180;9970;-36.854;174.870;2024-03-06T11:14:03;102010.00;;;17.30
19644;BMP180;9970;-36.854;174.870;2024-03-06T11:16:56;101990.00;;;17.20
19644;BMP180;9970;-36.854;174.870;2024-03-06T11:19:11;101996.00;;;17.20
19644;BMP180;9970;-36.854;174.870;2024-03-06T11:21:47;101982.00;;;17.20
19644;BMP180;9970;-36.854;174.870;2024-03-06T11:24:21;101987.00;;;17.20
19644;BMP180;9970;-36.854;174.870;2024-03-06T11:26:59;101993.00;;;17.20
19644;BMP180;9970;-36.854;174.870;2024-03-06T11:32:23;101983.00;;;17.10
19644;BMP180;9970;-36.854;174.870;2024-03-06T11:34:56;101978.00;;;17.10
19644;BMP180;9970;-36.854;174.870;2024-03-06T11:37:33;101981.00;;;17.10
19644;BMP180;9970;-36.854;174.870;2024-03-06T11:40:08;101985.00;;;17.10
19644;BMP180;9970;-36.854;174.870;2024-03-06T11:42:42;101995.00;;;17.10
19644;BMP180;9970;-36.854;174.870;2024-03-06T11:45:16;101970.00;;;17.10
19644;BMP180;9970;-36.854;174.870;2024-03-06T11:48:03;101979.00;;;17.10
19644;BMP180;9970;-36.854;174.870;2024-03-06T11:50:37;101976.00;;;17.00
19644;BMP180;9970;-36.854;174.870;2024-03-06T11:53:10;101970.00;;;17.00
19644;BMP180;9970;-36.854;174.870;2024-03-06T11:55:43;101962.00;;;16.90
19644;BMP180;9970;-36.854;174.870;2024-03-06T11:58:16;101975.00;;;16.90
19644;BMP180;9970;-36.854;174.870;2024-03-06T12:00:49;101976.00;;;16.90
19644;BMP180;9970;-36.854;174.870;2024-03-06T12:03:23;101972.00;;;16.90
19644;BMP180;9970;-36.854;174.870;2024-03-06T12:05:56;101976.00;;;16.90
19644;BMP180;9970;-36.854;174.870;2024-03-06T12:08:34;101970.00;;;16.90
19644;BMP180;9970;-36.854;174.870;2024-03-06T12:11:08;101977.00;;;16.90
19644;BMP180;9970;-36.854;174.870;2024-03-06T12:13:42;101968.00;;;16.80
19644;BMP180;9970;-36.854;174.870;2024-03-06T12:16:15;101973.00;;;16.80
19644;BMP180;9970;-36.854;174.870;2024-03-06T12:18:57;101986.00;;;16.80
19644;BMP180;9970;-36.854;174.870;2024-03-06T12:21:22;101981.00;;;16.80
19644;BMP180;9970;-36.854;174.870;2024-03-06T12:24:05;101981.00;;;16.70
19644;BMP180;9970;-36.854;174.870;2024-03-06T12:26:36;101980.00;;;16.70
19644;BMP180;9970;-36.854;174.870;2024-03-06T12:29:10;101975.00;;;16.70
19644;BMP180;9970;-36.854;174.870;2024-03-06T12:31:43;101971.00;;;16.70
19644;BMP180;9970;-36.854;174.870;2024-03-06T12:34:16;101976.00;;;16.80
19644;BMP180;9970;-36.854;174.870;2024-03-06T12:36:49;101978.00;;;16.70
19644;BMP180;9970;-36.854;174.870;2024-03-06T12:39:23;101967.00;;;16.70
19644;BMP180;9970;-36.854;174.870;2024-03-06T12:41:56;101968.00;;;16.70
19644;BMP180;9970;-36.854;174.870;2024-03-06T12:44:29;101976.00;;;16.70
19644;BMP180;9970;-36.854;174.870;2024-03-06T12:47:02;101985.00;;;16.70
19644;BMP180;9970;-36.854;174.870;2024-03-06T12:49:35;101982.00;;;16.70
19644;BMP180;9970;-36.854;174.870;2024-03-06T12:52:08;101984.00;;;16.70
19644;BMP180;9970;-36.854;174.870;2024-03-06T12:54:40;101981.00;;;16.60
19644;BMP180;9970;-36.854;174.870;2024-03-06T12:57:13;101976.00;;;16.60
19644;BMP180;9970;-36.854;174.870;2024-03-06T12:59:47;101971.00;;;16.60
19644;BMP180;9970;-36.854;174.870;2024-03-06T13:02:20;101968.00;;;16.60
19644;BMP180;9970;-36.854;174.870;2024-03-06T13:04:53;101970.00;;;16.70
19644;BMP180;9970;-36.854;174.870;2024-03-06T13:07:26;101974.00;;;16.60
19644;BMP180;9970;-36.854;174.870;2024-03-06T13:09:59;101972.00;;;16.60
19644;BMP180;9970;-36.854;174.870;2024-03-06T13:12:33;101970.00;;;16.60
19644;BMP180;9970;-36.854;174.870;2024-03-06T13:15:07;101974.00;;;16.60
19644;BMP180;9970;-36.854;174.870;2024-03-06T13:17:39;101968.00;;;16.60
19644;BMP180;9970;-36.854;174.870;2024-03-06T13:20:13;101965.00;;;16.50
19644;BMP180;9970;-36.854;174.870;2024-03-06T13:22:46;101956.00;;;16.50
19644;BMP180;9970;-36.854;174.870;2024-03-06T13:25:19;101964.00;;;16.50
19644;BMP180;9970;-36.854;174.870;2024-03-06T13:27:52;101954.00;;;16.50
19644;BMP180;9970;-36.854;174.870;2024-03-06T13:30:25;101957.00;;;16.50
19644;BMP180;9970;-36.854;174.870;2024-03-06T13:32:59;101952.00;;;16.50
19644;BMP180;9970;-36.854;174.870;2024-03-06T13:35:32;101954.00;;;16.50
19644;BMP180;9970;-36.854;174.870;2024-03-06T13:38:04;101953.00;;;16.50
19644;BMP180;9970;-36.854;174.870;2024-03-06T13:40:38;101956.00;;;16.40
19644;BMP180;9970;-36.854;174.870;2024-03-06T13:43:11;101961.00;;;16.40
19644;BMP180;9970;-36.854;174.870;2024-03-06T13:45:51;101957.00;;;16.40
19644;BMP180;9970;-36.854;174.870;2024-03-06T13:48:24;101949.00;;;16.40
19644;BMP180;9970;-36.854;174.870;2024-03-06T13:50:58;101952.00;;;16.40
19644;BMP180;9970;-36.854;174.870;2024-03-06T13:53:31;101957.00;;;16.40
19644;BMP180;9970;-36.854;174.870;2024-03-06T13:56:08;101951.00;;;16.40
19644;BMP180;9970;-36.854;174.870;2024-03-06T13:58:41;101947.00;;;16.40
19644;BMP180;9970;-36.854;174.870;2024-03-06T14:01:14;101945.00;;;16.40
19644;BMP180;9970;-36.854;174.870;2024-03-06T14:03:51;101959.00;;;16.40
19644;BMP180;9970;-36.854;174.870;2024-03-06T14:06:24;101955.00;;;16.50
19644;BMP180;9970;-36.854;174.870;2024-03-06T14:08:57;101950.00;;;16.40
19644;BMP180;9970;-36.854;174.870;2024-03-06T14:11:30;101942.00;;;16.50
19644;BMP180;9970;-36.854;174.870;2024-03-06T14:14:03;101963.00;;;16.50
19644;BMP180;9970;-36.854;174.870;2024-03-06T14:16:36;101962.00;;;16.40